Masset, Canada
Current Conditions -  °F | °C
As of 6:00 PM on Thursday 27 Nov 2014 (Local Time) from CZMT Reporting Station
Overcast Overcast  
Wind Chill: 38°   Ceiling: 2000
Heat Index: 41°   Visibility: 15mi
Dew Point: 25°   Wind: 5mph
Humidity: 53%   Direction: NA
Pressure: 29.7"   Gusts: NA
Location:  54.02°N, 132.15°W
Report Text: CZMT 280200Z VRB04KT 15SM FEW006 FEW015 BKN020 OVC035 05/M04 A2970 RMK CF1SC2SC5SC1 CF TR LAST OBS/NEXT 281500 UTC SLP056
Loading
Personal Weather Stations






























Interactive Weather Map New forecast layout! Learn more

10-Day Weather Forecast

Advertisements
Track Severe Weather on mobile